createdAt,value
2024-02-13T00:01:59.428Z,-1.47
2024-02-13T00:04:26.955Z,-1.51
2024-02-13T00:06:57.024Z,-1.53
2024-02-13T00:09:24.208Z,-1.52
2024-02-13T00:11:52.441Z,-1.53
2024-02-13T00:14:20.979Z,-1.59
2024-02-13T00:16:48.533Z,-1.62
2024-02-13T00:19:15.782Z,-1.63
2024-02-13T00:21:44.560Z,-1.65
2024-02-13T00:24:11.984Z,-1.69
2024-02-13T00:26:39.570Z,-1.74
2024-02-13T00:29:06.705Z,-1.78
2024-02-13T00:31:35.204Z,-1.75
2024-02-13T00:34:23.446Z,-1.70
2024-02-13T00:36:51.544Z,-1.71
2024-02-13T00:39:19.035Z,-1.72
2024-02-13T00:41:46.435Z,-1.65
2024-02-13T00:44:13.559Z,-1.67
2024-02-13T00:46:40.712Z,-1.64
2024-02-13T00:49:07.927Z,-1.66
2024-02-13T00:51:34.984Z,-1.65
2024-02-13T00:54:02.099Z,-1.64
2024-02-13T00:56:29.563Z,-1.63
2024-02-13T00:59:03.095Z,-1.63
2024-02-13T01:01:31.107Z,-1.67
2024-02-13T01:03:58.428Z,-1.70
2024-02-13T01:06:25.567Z,-1.74
2024-02-13T01:08:52.705Z,-1.76
2024-02-13T01:11:19.878Z,-1.82
2024-02-13T01:13:47.418Z,-1.86
2024-02-13T01:16:15.470Z,-1.78
2024-02-13T01:18:42.772Z,-1.82
2024-02-13T01:21:12.852Z,-1.85
2024-02-13T01:23:40.002Z,-1.91
2024-02-13T01:26:07.335Z,-1.91
2024-02-13T01:28:36.109Z,-1.92
2024-02-13T01:31:03.795Z,-1.89
2024-02-13T01:33:31.645Z,-1.90
2024-02-13T01:35:59.136Z,-1.85
2024-02-13T01:38:29.328Z,-1.84
2024-02-13T01:40:56.526Z,-1.82
2024-02-13T01:43:26.508Z,-1.83
2024-02-13T01:45:54.273Z,-1.82
2024-02-13T01:48:22.958Z,-1.78
2024-02-13T01:50:51.362Z,-1.77
2024-02-13T01:53:22.474Z,-1.74
2024-02-13T01:55:51.530Z,-1.73
2024-02-13T01:58:20.668Z,-1.75
2024-02-13T02:00:50.137Z,-1.79
2024-02-13T02:03:19.145Z,-1.85
2024-02-13T02:05:46.278Z,-1.93
2024-02-13T02:08:30.249Z,-1.97
2024-02-13T02:11:00.695Z,-1.98
2024-02-13T02:13:30.507Z,-1.95
2024-02-13T02:16:12.792Z,-1.96
2024-02-13T02:18:40.763Z,-2.02
2024-02-13T02:21:09.263Z,-2.04
2024-02-13T02:23:36.830Z,-2.09
2024-02-13T02:26:18.963Z,-2.09
2024-02-13T02:29:03.674Z,-2.04
2024-02-13T02:31:33.244Z,-2.01
2024-02-13T02:34:00.871Z,-2.02
2024-02-13T02:36:28.563Z,-2.05
2024-02-13T02:38:55.730Z,-2.11
2024-02-13T02:41:23.117Z,-2.16
2024-02-13T02:43:50.371Z,-2.28
2024-02-13T02:46:17.952Z,-2.33
2024-02-13T02:48:45.474Z,-2.37
2024-02-13T02:51:12.577Z,-2.41
2024-02-13T02:53:39.870Z,-2.45
2024-02-13T02:56:07.492Z,-2.43
2024-02-13T02:58:35.076Z,-2.46
2024-02-13T03:01:03.462Z,-2.51
2024-02-13T03:03:32.827Z,-2.55
2024-02-13T03:06:00.287Z,-2.56
2024-02-13T03:08:29.298Z,-2.57
2024-02-13T03:10:56.392Z,-2.65
2024-02-13T03:13:23.977Z,-2.66
2024-02-13T03:15:51.237Z,-2.72
2024-02-13T03:18:21.385Z,-2.76
2024-02-13T03:20:48.602Z,-2.78
2024-02-13T03:23:17.468Z,-2.77
2024-02-13T03:25:45.114Z,-2.75
2024-02-13T03:28:32.128Z,-2.74
2024-02-13T03:31:00.577Z,-2.77
2024-02-13T03:33:27.830Z,-2.84
2024-02-13T03:35:55.349Z,-2.89
2024-02-13T03:38:22.647Z,-2.90
2024-02-13T03:40:49.690Z,-2.94
2024-02-13T03:43:16.751Z,-3.02
2024-02-13T03:45:43.744Z,-3.07
2024-02-13T03:48:23.939Z,-3.09
2024-02-13T03:50:51.039Z,-3.11
2024-02-13T03:53:18.134Z,-3.14
2024-02-13T03:55:45.670Z,-3.13
2024-02-13T03:58:13.978Z,-3.12
2024-02-13T04:00:41.765Z,-3.08
2024-02-13T04:03:08.972Z,-3.12
2024-02-13T04:05:38.971Z,-3.07
2024-02-13T04:08:07.761Z,-3.07
2024-02-13T04:10:36.822Z,-3.03
2024-02-13T04:13:14.101Z,-3.08
2024-02-13T04:15:41.379Z,-3.04
2024-02-13T04:18:09.398Z,-3.06
2024-02-13T04:20:40.804Z,-3.04
2024-02-13T04:23:08.658Z,-3.05
2024-02-13T04:25:36.930Z,-3.06
2024-02-13T04:28:05.099Z,-3.05
2024-02-13T04:30:33.245Z,-3.06
2024-02-13T04:33:00.744Z,-3.02
2024-02-13T04:35:28.312Z,-2.98
2024-02-13T04:37:55.629Z,-2.94
2024-02-13T04:40:23.346Z,-2.94
2024-02-13T04:43:10.611Z,-2.93
2024-02-13T04:45:38.713Z,-2.91
2024-02-13T04:48:06.648Z,-2.93
2024-02-13T04:50:34.401Z,-2.93
2024-02-13T04:53:01.732Z,-2.92
2024-02-13T04:55:28.963Z,-2.92
2024-02-13T04:57:58.261Z,-2.91
2024-02-13T05:00:29.865Z,-2.92
2024-02-13T05:03:15.922Z,-2.92
2024-02-13T05:06:05.409Z,-2.91
2024-02-13T05:08:32.662Z,-2.92
2024-02-13T05:10:59.699Z,-2.94
2024-02-13T05:13:26.881Z,-2.93
2024-02-13T05:15:54.068Z,-2.88
2024-02-13T05:18:22.270Z,-2.90
2024-02-13T05:20:49.819Z,-2.93
2024-02-13T05:23:17.328Z,-2.95
2024-02-13T05:25:46.884Z,-2.95
2024-02-13T05:28:13.913Z,-2.96
2024-02-13T05:30:40.995Z,-3.03
2024-02-13T05:33:08.286Z,-3.08
2024-02-13T05:35:39.311Z,-3.18
2024-02-13T05:38:06.600Z,-3.17
2024-02-13T05:40:36.506Z,-3.18
2024-02-13T05:43:06.434Z,-3.14
2024-02-13T05:45:33.505Z,-3.15
2024-02-13T05:48:04.909Z,-3.17
2024-02-13T05:50:32.287Z,-3.16
2024-02-13T05:52:59.853Z,-3.18
2024-02-13T05:55:26.811Z,-3.15
2024-02-13T05:57:54.415Z,-3.14
2024-02-13T06:00:25.749Z,-3.06
2024-02-13T06:02:56.771Z,-3.02
2024-02-13T06:05:24.518Z,-2.91
2024-02-13T06:07:52.977Z,-2.83
2024-02-13T06:10:23.244Z,-2.75
2024-02-13T06:12:50.402Z,-2.68
2024-02-13T06:15:17.898Z,-2.63
2024-02-13T06:17:46.087Z,-2.62
2024-02-13T06:20:14.134Z,-2.62
2024-02-13T06:22:43.026Z,-2.62
2024-02-13T06:25:12.496Z,-2.66
2024-02-13T06:27:41.832Z,-2.73
2024-02-13T06:30:09.448Z,-2.75
2024-02-13T06:32:46.462Z,-2.77
2024-02-13T06:35:14.435Z,-2.76
2024-02-13T06:38:01.342Z,-2.75
2024-02-13T06:40:29.253Z,-2.70
2024-02-13T06:42:56.353Z,-2.65
2024-02-13T06:45:23.384Z,-2.55
2024-02-13T06:47:50.779Z,-2.47
2024-02-13T06:50:18.181Z,-2.41
2024-02-13T06:52:45.531Z,-2.38
2024-02-13T06:55:14.539Z,-2.36
2024-02-13T06:57:58.336Z,-2.32
2024-02-13T07:00:27.294Z,-2.28
2024-02-13T07:02:56.298Z,-2.27
2024-02-13T07:05:24.167Z,-2.17
2024-02-13T07:07:51.504Z,-2.17
2024-02-13T07:10:19.150Z,-2.17
2024-02-13T07:13:05.256Z,-2.22
2024-02-13T07:15:33.622Z,-2.23
2024-02-13T07:18:02.032Z,-2.20
2024-02-13T07:20:31.025Z,-2.19
2024-02-13T07:22:58.872Z,-2.17
2024-02-13T07:25:26.181Z,-2.17
2024-02-13T07:27:54.091Z,-2.21
2024-02-13T07:30:21.376Z,-2.21
2024-02-13T07:32:48.732Z,-2.23
2024-02-13T07:35:16.619Z,-2.28
2024-02-13T07:37:59.919Z,-2.29
2024-02-13T07:40:27.638Z,-2.27
2024-02-13T07:42:54.959Z,-2.22
2024-02-13T07:45:22.581Z,-2.17
2024-02-13T07:48:07.573Z,-2.22
2024-02-13T07:50:36.470Z,-2.24
2024-02-13T07:53:06.021Z,-2.32
2024-02-13T07:55:33.364Z,-2.33
2024-02-13T07:58:12.619Z,-2.28
2024-02-13T08:00:40.499Z,-2.31
2024-02-13T08:03:08.232Z,-2.35
2024-02-13T08:05:38.348Z,-2.33
2024-02-13T08:08:10.537Z,-2.27
2024-02-13T08:10:44.448Z,-2.15
2024-02-13T08:13:11.533Z,-2.09
2024-02-13T08:15:39.076Z,-2.04
2024-02-13T08:18:06.412Z,-2.01
2024-02-13T08:20:34.483Z,-1.93
2024-02-13T08:23:03.939Z,-1.86
2024-02-13T08:25:31.368Z,-1.77
2024-02-13T08:27:59.954Z,-1.71
2024-02-13T08:30:27.465Z,-1.61
2024-02-13T08:32:54.947Z,-1.53
2024-02-13T08:35:23.003Z,-1.46
2024-02-13T08:37:52.617Z,-1.40
2024-02-13T08:40:20.852Z,-1.39
2024-02-13T08:42:49.523Z,-1.32
2024-02-13T08:45:17.190Z,-1.29
2024-02-13T08:47:58.600Z,-1.31
2024-02-13T08:50:26.165Z,-1.31
2024-02-13T08:53:01.108Z,-1.29
2024-02-13T08:55:31.045Z,-1.26
2024-02-13T08:57:59.274Z,-1.21
2024-02-13T09:00:30.306Z,-1.17
2024-02-13T09:03:12.775Z,-1.09
2024-02-13T09:05:42.411Z,-1.03
2024-02-13T09:08:09.628Z,-0.93
2024-02-13T09:10:37.317Z,-0.84
2024-02-13T09:13:04.616Z,-0.77
2024-02-13T09:15:32.035Z,-0.68
2024-02-13T09:18:01.510Z,-0.65
2024-02-13T09:20:29.975Z,-0.59
2024-02-13T09:22:58.324Z,-0.61
2024-02-13T09:25:25.542Z,-0.65
2024-02-13T09:27:54.181Z,-0.71
2024-02-13T09:30:21.479Z,-0.79
2024-02-13T09:32:49.764Z,-0.87
2024-02-13T09:35:19.293Z,-0.99
2024-02-13T09:37:57.222Z,-0.95
2024-02-13T09:40:28.984Z,-0.88
2024-02-13T09:42:57.136Z,-0.83
2024-02-13T09:45:24.336Z,-0.75
2024-02-13T09:47:51.665Z,-0.65
2024-02-13T09:50:20.092Z,-0.59
2024-02-13T09:52:49.210Z,-0.61
2024-02-13T09:55:16.816Z,-0.72
2024-02-13T09:57:48.235Z,-0.79
2024-02-13T10:00:18.080Z,-0.78
2024-02-13T10:02:48.708Z,-0.84
2024-02-13T10:05:18.557Z,-0.92
2024-02-13T10:07:46.703Z,-1.02
2024-02-13T10:10:14.229Z,-1.00
2024-02-13T10:12:59.365Z,-1.01
2024-02-13T10:15:38.105Z,-1.08
2024-02-13T10:18:12.953Z,-1.06
2024-02-13T10:20:44.200Z,-1.08
2024-02-13T10:23:21.081Z,-1.08
2024-02-13T10:25:48.304Z,-1.03
2024-02-13T10:28:18.655Z,-0.91
2024-02-13T10:30:50.420Z,-0.84
2024-02-13T10:33:17.838Z,-0.76
2024-02-13T10:35:45.599Z,-0.70
2024-02-13T10:38:14.092Z,-0.69
2024-02-13T10:40:44.561Z,-0.81
2024-02-13T10:43:13.877Z,-0.87
2024-02-13T10:45:42.154Z,-0.91
2024-02-13T10:48:34.152Z,-0.87
2024-02-13T10:51:03.927Z,-0.87
2024-02-13T10:53:34.026Z,-0.85
2024-02-13T10:56:04.087Z,-0.76
2024-02-13T10:58:34.421Z,-0.66
2024-02-13T11:01:04.846Z,-0.63
2024-02-13T11:03:34.691Z,-0.54
2024-02-13T11:06:02.718Z,-0.50
2024-02-13T11:08:30.126Z,-0.44
2024-02-13T11:10:57.290Z,-0.42
2024-02-13T11:13:27.305Z,-0.44
2024-02-13T11:15:59.539Z,-0.45
2024-02-13T11:18:52.036Z,-0.45
2024-02-13T11:21:21.444Z,-0.39
2024-02-13T11:24:13.633Z,-0.39
2024-02-13T11:26:40.848Z,-0.42
2024-02-13T11:29:25.744Z,-0.43
2024-02-13T11:31:59.268Z,-0.48
2024-02-13T11:34:42.887Z,-0.59
2024-02-13T11:37:28.383Z,-0.66
2024-02-13T11:39:58.168Z,-0.73
2024-02-13T11:42:33.820Z,-0.80
2024-02-13T11:45:13.326Z,-0.84
2024-02-13T11:47:51.161Z,-0.86
2024-02-13T11:50:20.899Z,-0.93
2024-02-13T11:52:49.613Z,-1.00
2024-02-13T11:55:18.352Z,-1.07
2024-02-13T11:57:48.735Z,-1.15
2024-02-13T12:00:23.441Z,-1.22
2024-02-13T12:03:08.116Z,-1.25
2024-02-13T12:05:35.210Z,-1.20
2024-02-13T12:08:02.278Z,-1.22
2024-02-13T12:10:30.074Z,-1.31
2024-02-13T12:12:57.508Z,-1.42
2024-02-13T12:15:24.773Z,-1.50
2024-02-13T12:17:56.818Z,-1.59
2024-02-13T12:20:29.376Z,-1.67
2024-02-13T12:23:01.530Z,-1.69
2024-02-13T12:25:28.717Z,-1.71
2024-02-13T12:28:01.873Z,-1.81
2024-02-13T12:30:30.380Z,-1.81
2024-02-13T12:33:07.859Z,-1.93
2024-02-13T12:35:40.854Z,-1.98
2024-02-13T12:38:16.202Z,-2.06
2024-02-13T12:40:45.905Z,-2.13
2024-02-13T12:43:17.473Z,-2.16
2024-02-13T12:45:47.842Z,-2.17
2024-02-13T12:48:15.846Z,-2.19
2024-02-13T12:50:43.392Z,-2.17
2024-02-13T12:53:11.130Z,-2.15
2024-02-13T12:55:44.624Z,-2.20
2024-02-13T12:58:14.192Z,-2.23
2024-02-13T13:00:47.778Z,-2.34
2024-02-13T13:03:16.156Z,-2.41
2024-02-13T13:05:44.785Z,-2.50
2024-02-13T13:08:16.525Z,-2.56
2024-02-13T13:10:44.659Z,-2.61
2024-02-13T13:13:18.725Z,-2.67
2024-02-13T13:15:47.532Z,-2.75
2024-02-13T13:18:21.337Z,-2.81
2024-02-13T13:20:49.877Z,-2.86
2024-02-13T13:23:17.321Z,-2.97
2024-02-13T13:25:47.197Z,-3.04
2024-02-13T13:28:17.684Z,-3.14
2024-02-13T13:30:50.292Z,-3.22
2024-02-13T13:33:20.744Z,-3.29
2024-02-13T13:35:48.801Z,-3.33
2024-02-13T13:38:18.732Z,-3.32
2024-02-13T13:40:49.524Z,-3.29
2024-02-13T13:43:16.933Z,-3.27
2024-02-13T13:45:58.302Z,-3.40
2024-02-13T13:48:31.511Z,-3.39
2024-02-13T13:51:01.719Z,-3.35
2024-02-13T13:53:28.844Z,-3.40
2024-02-13T13:55:56.706Z,-3.46
2024-02-13T13:58:26.845Z,-3.49
2024-02-13T14:00:57.088Z,-3.58
2024-02-13T14:03:24.924Z,-3.52
2024-02-13T14:05:52.322Z,-3.56
2024-02-13T14:08:19.832Z,-3.62
2024-02-13T14:10:47.963Z,-3.66
2024-02-13T14:13:15.477Z,-3.77
2024-02-13T14:15:42.663Z,-3.82
2024-02-13T14:18:13.898Z,-3.83
2024-02-13T14:20:42.009Z,-3.87
2024-02-13T14:23:10.427Z,-3.94
2024-02-13T14:25:38.490Z,-4.03
2024-02-13T14:28:08.721Z,-4.10
2024-02-13T14:30:36.322Z,-4.18
2024-02-13T14:33:07.287Z,-4.24
2024-02-13T14:35:35.692Z,-4.32
2024-02-13T14:38:16.931Z,-4.44
2024-02-13T14:40:50.287Z,-4.41
2024-02-13T14:43:17.683Z,-4.47
2024-02-13T14:45:47.310Z,-4.57
2024-02-13T14:48:17.402Z,-4.58
2024-02-13T14:50:48.471Z,-4.71
2024-02-13T14:53:22.368Z,-4.80
2024-02-13T14:55:50.358Z,-4.97
2024-02-13T14:58:26.063Z,-5.02
2024-02-13T15:00:58.759Z,-5.15
2024-02-13T15:03:26.294Z,-5.26
2024-02-13T15:05:54.631Z,-5.30
2024-02-13T15:08:25.401Z,-5.35
2024-02-13T15:10:53.391Z,-5.40
2024-02-13T15:13:21.674Z,-5.46
2024-02-13T15:15:52.233Z,-5.56
2024-02-13T15:18:40.072Z,-5.56
2024-02-13T15:21:15.512Z,-5.67
2024-02-13T15:23:43.160Z,-5.75
2024-02-13T15:26:11.621Z,-5.82
2024-02-13T15:28:38.710Z,-5.85
2024-02-13T15:31:05.810Z,-5.89
2024-02-13T15:33:43.660Z,-5.93
2024-02-13T15:36:29.191Z,-5.99
2024-02-13T15:39:15.098Z,-5.99
2024-02-13T15:42:01.320Z,-6.02
2024-02-13T15:44:47.087Z,-6.05
2024-02-13T15:47:14.178Z,-6.07
2024-02-13T15:49:45.253Z,-6.07
2024-02-13T15:52:15.795Z,-6.07
2024-02-13T15:54:43.260Z,-6.07
2024-02-13T15:57:13.968Z,-6.08
2024-02-13T15:59:45.070Z,-6.08
2024-02-13T16:02:15.879Z,-6.10
2024-02-13T16:04:44.262Z,-6.10
2024-02-13T16:07:12.157Z,-6.13
2024-02-13T16:09:39.900Z,-6.13
2024-02-13T16:12:07.364Z,-6.14
2024-02-13T16:14:34.766Z,-6.19
2024-02-13T16:17:02.453Z,-6.20
2024-02-13T16:19:31.693Z,-6.22
2024-02-13T16:21:59.469Z,-6.19
2024-02-13T16:24:26.928Z,-6.12
2024-02-13T16:26:54.876Z,-6.07
2024-02-13T16:29:24.916Z,-6.06
2024-02-13T16:31:56.030Z,-6.04
2024-02-13T16:34:23.411Z,-6.08
2024-02-13T16:36:50.569Z,-6.05
2024-02-13T16:39:19.267Z,-6.04
2024-02-13T16:41:47.302Z,-6.04
2024-02-13T16:44:19.024Z,-6.08
2024-02-13T16:46:48.900Z,-6.11
2024-02-13T16:49:16.122Z,-6.11
2024-02-13T16:51:43.331Z,-6.08
2024-02-13T16:54:11.316Z,-6.08
2024-02-13T16:56:38.622Z,-6.07
2024-02-13T16:59:07.019Z,-6.08
2024-02-13T17:01:34.325Z,-6.06
2024-02-13T17:04:02.347Z,-6.02
2024-02-13T17:06:33.578Z,-6.03
2024-02-13T17:09:02.030Z,-6.07
2024-02-13T17:11:30.248Z,-6.10
2024-02-13T17:13:57.458Z,-6.18
2024-02-13T17:16:24.441Z,-6.23
2024-02-13T17:18:51.871Z,-6.25
2024-02-13T17:21:19.877Z,-6.29
2024-02-13T17:23:46.977Z,-6.34
2024-02-13T17:26:21.397Z,-6.33
2024-02-13T17:28:48.728Z,-6.28
2024-02-13T17:31:16.505Z,-6.27
2024-02-13T17:33:44.945Z,-6.26
2024-02-13T17:36:12.833Z,-6.23
2024-02-13T17:38:40.045Z,-6.21
2024-02-13T17:41:07.771Z,-6.20
2024-02-13T17:43:35.674Z,-6.19
2024-02-13T17:46:02.872Z,-6.17
2024-02-13T17:48:30.373Z,-6.18
2024-02-13T17:50:57.826Z,-6.19
2024-02-13T17:53:24.953Z,-6.18
2024-02-13T17:55:52.271Z,-6.22
2024-02-13T17:58:19.420Z,-6.21
2024-02-13T18:00:46.567Z,-6.23
2024-02-13T18:03:13.857Z,-6.25
2024-02-13T18:05:41.428Z,-6.26
2024-02-13T18:08:29.023Z,-6.25
2024-02-13T18:10:56.128Z,-6.23
2024-02-13T18:13:23.592Z,-6.19
2024-02-13T18:15:51.763Z,-6.22
2024-02-13T18:18:19.446Z,-6.23
2024-02-13T18:20:47.313Z,-6.21
2024-02-13T18:23:16.952Z,-6.25
2024-02-13T18:25:45.131Z,-6.22
2024-02-13T18:28:14.683Z,-6.26
2024-02-13T18:30:42.213Z,-6.23
2024-02-13T18:33:09.746Z,-6.25
2024-02-13T18:35:49.206Z,-6.27
2024-02-13T18:38:16.714Z,-6.28
2024-02-13T18:52:48.824Z,-6.24
2024-02-13T19:05:33.117Z,-6.29
2024-02-13T19:08:59.619Z,-6.37
2024-02-13T19:25:36.016Z,-6.96
2024-02-13T19:28:18.371Z,-6.86
2024-02-13T19:31:37.510Z,-6.82
2024-02-13T19:35:01.866Z,-6.88
2024-02-13T19:37:33.265Z,-6.96
2024-02-13T19:40:00.541Z,-6.95
2024-02-13T19:42:27.820Z,-6.98
2024-02-13T19:44:54.984Z,-7.00
2024-02-13T19:47:22.499Z,-7.04
2024-02-13T19:50:09.722Z,-7.10
2024-02-13T19:52:56.852Z,-7.21
2024-02-13T19:55:44.559Z,-7.23
2024-02-13T19:58:31.621Z,-7.30
2024-02-13T20:01:19.009Z,-7.37
2024-02-13T20:04:06.595Z,-7.43
2024-02-13T20:06:54.185Z,-7.52
2024-02-13T20:09:21.265Z,-7.56
2024-02-13T20:11:48.513Z,-7.62
2024-02-13T20:14:15.949Z,-7.65
2024-02-13T20:16:43.548Z,-7.71
2024-02-13T20:19:11.122Z,-7.79
2024-02-13T20:21:40.915Z,-7.81
2024-02-13T20:24:09.657Z,-7.91
2024-02-13T20:26:39.827Z,-7.88
2024-02-13T20:29:07.573Z,-7.92
2024-02-13T20:31:35.359Z,-7.92
2024-02-13T20:34:02.845Z,-7.93
2024-02-13T20:36:30.628Z,-7.95
2024-02-13T20:39:11.228Z,-7.97
2024-02-13T20:41:42.497Z,-8.02
2024-02-13T20:44:10.867Z,-8.03
2024-02-13T20:46:39.302Z,-8.09
2024-02-13T20:49:14.067Z,-8.14
2024-02-13T20:51:44.433Z,-8.15
2024-02-13T20:54:16.992Z,-8.21
2024-02-13T20:56:49.959Z,-8.22
2024-02-13T20:59:19.087Z,-8.24
2024-02-13T21:01:49.226Z,-8.28
2024-02-13T21:04:16.837Z,-8.28
2024-02-13T21:06:45.192Z,-8.30
2024-02-13T21:09:13.635Z,-8.33
2024-02-13T21:11:42.327Z,-8.34
2024-02-13T21:14:11.433Z,-8.35
2024-02-13T21:16:38.530Z,-8.39
2024-02-13T21:19:11.020Z,-8.41
2024-02-13T21:22:01.120Z,-8.44
2024-02-13T21:24:29.845Z,-8.47
2024-02-13T21:26:56.972Z,-8.51
2024-02-13T21:29:24.138Z,-8.50
2024-02-13T21:31:51.154Z,-8.53
2024-02-13T21:34:21.696Z,-8.56
2024-02-13T21:36:48.927Z,-8.59
2024-02-13T21:39:16.327Z,-8.59
2024-02-13T21:41:43.670Z,-8.59
2024-02-13T21:44:10.737Z,-8.60
2024-02-13T21:46:38.569Z,-8.62
2024-02-13T21:49:07.970Z,-8.62
2024-02-13T21:51:35.343Z,-8.64
2024-02-13T21:54:02.676Z,-8.68
2024-02-13T21:56:30.067Z,-8.68
2024-02-13T21:58:57.116Z,-8.69
2024-02-13T22:01:25.239Z,-8.68
2024-02-13T22:03:52.366Z,-8.65
2024-02-13T22:06:22.362Z,-8.66
2024-02-13T22:08:49.808Z,-8.67
2024-02-13T22:11:16.832Z,-8.69
2024-02-13T22:13:44.056Z,-8.69
2024-02-13T22:16:11.247Z,-8.69
2024-02-13T22:18:38.682Z,-8.72
2024-02-13T22:21:06.838Z,-8.77
2024-02-13T22:23:34.480Z,-8.77
2024-02-13T22:26:03.124Z,-8.82
2024-02-13T22:28:30.632Z,-8.79
2024-02-13T22:30:57.989Z,-8.80
2024-02-13T22:33:33.342Z,-8.82
2024-02-13T22:36:00.659Z,-8.85
2024-02-13T22:38:27.978Z,-8.87
2024-02-13T22:40:55.360Z,-8.89
2024-02-13T22:43:22.438Z,-8.94
2024-02-13T22:45:49.620Z,-8.95
2024-02-13T22:48:16.688Z,-8.99
2024-02-13T22:50:43.951Z,-9.01
2024-02-13T22:53:10.973Z,-9.04
2024-02-13T22:55:39.832Z,-9.05
2024-02-13T22:58:07.120Z,-9.05
2024-02-13T23:00:50.794Z,-9.08
2024-02-13T23:03:19.199Z,-9.11
2024-02-13T23:05:51.475Z,-9.06
2024-02-13T23:08:18.968Z,-9.09
2024-02-13T23:10:46.382Z,-9.10
2024-02-13T23:13:18.206Z,-9.13
2024-02-13T23:15:45.394Z,-9.14
2024-02-13T23:18:13.800Z,-9.14
2024-02-13T23:20:41.845Z,-9.19
2024-02-13T23:23:10.066Z,-9.16
2024-02-13T23:25:37.545Z,-9.13
2024-02-13T23:28:13.762Z,-9.15
2024-02-13T23:30:44.512Z,-9.15
2024-02-13T23:33:13.442Z,-9.15
2024-02-13T23:35:41.072Z,-9.16
2024-02-13T23:38:09.470Z,-9.19
2024-02-13T23:40:37.680Z,-9.18
2024-02-13T23:43:07.281Z,-9.22
2024-02-13T23:45:35.078Z,-9.22
2024-02-13T23:48:02.354Z,-9.23
2024-02-13T23:50:30.614Z,-9.26
2024-02-13T23:52:58.104Z,-9.27
2024-02-13T23:55:27.513Z,-9.29
2024-02-13T23:57:55.034Z,-9.30
